Dnes je 21. listopadu 2018

7:25 16:10

Příčiny tragické nehody u Moskvy jsou nejasné, úřady potvrdily 71 obětí

12. 2. 2018

Krátce po vzletu z letiště Moskva-Domodědovo havaroval včera odpoledne letoun Antonov An-148 Saratovských aerolinií. Na palubě stroje mířícího do Orsku bylo 65 cestujících a šest členů posádky. Ruské úřady v neděli večer potvrdily, že nehodu nikdo nepřežil.

Nehoda Antonovu An-148 Saratovských aeroliniíNehoda Antonovu An-148 Saratovských aerolinií

Podle informací serveru Aviation Herald letoun registrace 6W-703 po vzletu z moskevské dráhy 14R stoupal do výšky 6 000 stop, z nichž začal znovu klesat a po chvíli zmizel z radarů. Trosky letadla byly následně nalezeny asi 18 námořních mil jihovýchodně od letiště vzletu.

Ruské úřady v neděli večer uvedly, že nehodu nepřežil nikdo ze sedmi desítek osob na palubě. Zároveň dementovaly zprávu některých ruských médií, že by se letoun ve vzduchu střetl s vrtulníkem pošty či jakýmkoliv jiným letadlem. Podle ministerstva pro mimořádné situace se již podařilo vyšetřovatelům zajistit jeden z letových zapisovačů.

O příčinách nehody se zatím objevují pouze spekulace. Zatímco některá média přinášejí svědectví lidí o pozorování hořícího letadla před dopadem, jiná média zase spekulují o vlivu počasí.

Událost pro vás nadále sledujeme a o jejím vývoji vás budeme informovat.

METAR letiště Moskva-Domodědovo v čase nehody

UUDD 111130Z 13006MPS 2100 -SN SCT008 OVC026 M05/M06 Q1019 R14R/590293 R14L/590392 TEMPO 1200 SHSN BKN012CB

UUDD 111100Z 14006MPS 1800 R14R/1900U R14L/1800U SHSN BKN007 BKN026CB M05/M06 Q1019 R14R/590293 R14L/590392 NOSIG

Mohlo by vás zajímat


Zkušenosti a doplnění našich čtenářů

Přidat komentář